Airfield :
LOGIN :

Register | Disclaimer

   EN    FR    IT 

 










Legend :    VFR   Marginal VFR   IFR   Intensive IFR   Very Intensive IFR
Visi :
Ceiling :
>= 8 km
>= 3000ft
5 to 8 km
1000 to 3000 ft
1500m to 5 km
500 to 1000 ft
800 to 1500m
200 to 500 ft
< 800m
< 200 ft
Symbols :   Thunderstorms  Fog  Heavy snow  Heavy precipitations  Wind > 20 kt
SIGMETs :     Misc.  Thunderstorms  Icing  Turbulence  Mountain Waves  Volcanic Ashes






- Airport Elevation : 375 ft
- IATA code : MST


EHBK - Maastricht Aachen

CURRENT METAR :
  • 270725Z AUTO 18011KT 9999 NSC 03/00 Q1002 NOSIG

EXPIRED METARs :
  • 270655Z AUTO 18011KT 9999 NSC 02/00 Q1002 NOSIG
  • 270625Z AUTO 19011KT 9999 FEW046 02/01 Q1003 NOSIG
  • 270555Z AUTO 19011KT 9999 NSC 02/01 Q1003 NOSIG
  • 270525Z AUTO 19011KT 9999 NSC 02/00 Q1004 NOSIG
  • 270455Z AUTO 19010KT 160V220 9999 NSC 02/00 Q1004

TAF COR TAF EHBK
Valid from the 27 at 06:00 until the 28 at 12:00 UTC


270518Z 2706/2812 19012KT 9999 FEW045
BECMG 2708/2711 15010KT 7000 RA
BECMG 2711/2714 06008KT 2000 RASN SCT004 BKN006
PROB40
TEMPO 2712/2719 0800 SNRA SN VV002
BECMG 2715/2718 30012KT
PROB40
TEMPO 2718/2721 30015G25KT 1500 SHRASN BKN003 SCT015CB
BECMG 2720/2723 27010KT 9999 NSW BKN020
BECMG 2800/2803 24008KT
BECMG 2807/2810 21012KT



MET'MAP, your aeronautical weather chart ! - Copyright ORBIFLY December 2007 - Disclaimer

ORBIFLY MET'MAP TEAM :

Programming & Development : Alexandra Zaïnal
Concept & original design : Baudouin d'Aumeries
Assistance for programming : Marc-Olivier Méhu
Technical & hardware support : Manuel Goepfert

Contact : metmap@orbifly.com




SOURCES & CREDITS :

   NOAA